• Join FlightAware (Why Join?)
  • Login
  • US Flag 
11:29AM EST


 

Airport Tracker/Info


-or-


 

Live Flight TrackerFlight Track Log ✈ EJA951 ✈ 13-May-2013 ✈ KTEB - KOKC

Flight Track Log - Related Links

Times and Time Zones

All times are in EDT time to prevent confusion due to time zone crossing. See the EJA951 flight status page for this flight to view local times or setup timezone preferences in your user account.

Time Position Orientation Groundspeed Altitude Reporting Facility
EDT Latitude Longitude Course Direction KTS MPH feet Rate Location/Type
04:44PM 40.8333 -74.0833 255° West 168 193 1,200  Level New York TRACON
04:45PM 40.8167 -74.1667 255° West 198 228 1,500 900 Climbing New York TRACON
04:46PM 40.8333 -74.2333 288° West 232 267 3,200 3,180 Climbing New York TRACON
04:47PM 40.8667 -74.3000 303° West 261 300 7,900 3,360 Climbing New York TRACON
04:48PM 40.9333 -74.3333 339° North 292 336 10,000 1,500 Climbing New York TRACON
04:49PM 40.9333 -74.4167 270° West 337 388 10,800 1,380 Climbing New York TRACON
04:49PM 40.9228 -74.4619 253° West 345 397 11,700 2,580 Climbing New York Center
04:50PM 40.8839 -74.5697 245° Southwest 345 397 14,200 2,340 Climbing New York Center
04:51PM 40.8383 -74.6850 242° Southwest 357 411 16,400 1,380 Climbing New York Center
04:52PM 40.7972 -74.7922 243° Southwest 362 417 17,000 480 Climbing New York Center
04:53PM 40.7425 -74.9314 243° Southwest 383 441 17,400 1,080 Climbing New York Center
04:54PM 40.6969 -75.0408 241° Southwest 383 441 19,200 2,700 Climbing New York Center
04:55PM 40.6489 -75.1528 241° Southwest 371 427 22,800 3,300 Climbing New York Center
04:56PM 40.6014 -75.2592 240° Southwest 354 407 25,800 2,220 Climbing New York Center
04:57PM 40.5511 -75.3706 239° Southwest 349 402 27,300 1,440 Climbing New York Center
04:58PM 40.4942 -75.4950 239° Southwest 367 422 28,800 1,440 Climbing New York Center
04:59PM 40.4392 -75.6167 239° Southwest 387 445 30,300 1,440 Climbing New York Center
05:00PM 40.3775 -75.7486 239° Southwest 406 467 31,700 1,440 Climbing New York Center
05:01PM 40.3156 -75.8775 238° Southwest 418 481 33,200 1,500 Climbing New York Center
05:02PM 40.2511 -76.0169 239° Southwest 431 496 34,800 960 Climbing New York Center
05:05PM 40.1303 -76.3050 241° Southwest 435 501 36,300 780 Climbing Washington Center
05:06PM 40.0711 -76.4481 242° Southwest 441 507 37,300 1,020 Climbing Washington Center
05:07PM 40.0031 -76.5989 240° Southwest 429 494 38,400 1,020 Climbing Washington Center
05:08PM 39.9458 -76.7336 241° Southwest 434 499 39,400 780 Climbing Washington Center
05:09PM 39.8883 -76.8569 239° Southwest 441 507 40,000 300 Climbing Washington Center
05:10PM 39.8219 -77.0206 242° Southwest 441 507 40,000  Level Washington Center
05:11PM 39.7575 -77.1678 240° Southwest 441 507 40,000  Level Washington Center
05:12PM 39.7039 -77.2853 239° Southwest 441 507 40,000  Level Washington Center
05:13PM 39.6372 -77.4347 240° Southwest 508 585 40,000  Level Washington Center
05:14PM 39.5722 -77.5836 241° Southwest 492 566 40,000  Level Washington Center
05:15PM 39.5072 -77.7353 241° Southwest 492 566 40,000  Level Washington Center
05:16PM 39.4397 -77.8864 240° Southwest 492 566 40,000  Level Washington Center
05:17PM 39.3700 -78.0372 239° Southwest 492 566 40,000  Level Washington Center
05:18PM 39.3044 -78.1881 241° Southwest 487 560 40,000  Level Washington Center
05:19PM 39.2344 -78.3383 239° Southwest 487 560 40,000  Level Washington Center
05:20PM 39.1661 -78.4883 240° Southwest 487 560 40,000  Level Washington Center
05:21PM 39.1000 -78.6381 240° Southwest 487 560 40,000  Level Washington Center
05:22PM 39.0314 -78.7903 240° Southwest 487 560 40,000  Level Washington Center
05:23PM 38.9539 -78.9550 239° Southwest 494 568 40,000  Level Washington Center
05:24PM 38.8872 -79.1014 240° Southwest 494 568 40,000  Level Washington Center
05:25PM 38.8417 -79.2272 245° Southwest 488 562 40,000  Level Washington Center
05:26PM 38.8022 -79.4250 256° West 476 548 40,000  Level Washington Center
05:27PM 38.7744 -79.5753 257° West 476 548 40,000  Level Washington Center
05:28PM 38.7414 -79.7544 257° West 455 524 40,000  Level Washington Center
05:29PM 38.6822 -80.0650 256° West 472 543 40,000  Level Indianapolis Center
05:30PM 38.6511 -80.2264 256° West 467 537 40,000  Level Indianapolis Center
05:32PM 38.6208 -80.3908 257° West 472 543 40,000  Level Indianapolis Center
05:33PM 38.5894 -80.5542 256° West 471 542 40,000  Level Indianapolis Center
05:34PM 38.5578 -80.7183 256° West 474 545 40,000  Level Indianapolis Center
05:35PM 38.5264 -80.8842 256° West 478 550 40,000  Level Indianapolis Center
05:36PM 38.4956 -81.0839 259° West 477 549 40,000  Level Indianapolis Center
05:37PM 38.4858 -81.2550 266° West 479 551 40,000  Level Indianapolis Center
05:38PM 38.4728 -81.4233 264° West 473 544 40,000  Level Indianapolis Center
05:39PM 38.4617 -81.5956 265° West 478 550 40,000  Level Indianapolis Center
05:40PM 38.4486 -81.7675 265° West 479 551 40,000  Level Indianapolis Center
05:41PM 38.4364 -81.9392 265° West 482 555 40,000  Level Indianapolis Center
05:42PM 38.4231 -82.1081 264° West 479 551 40,000  Level Indianapolis Center
05:43PM 38.4094 -82.2769 264° West 478 550 40,000  Level Indianapolis Center
05:44PM 38.3972 -82.4439 265° West 472 543 40,000  Level Indianapolis Center
05:45PM 38.3806 -82.6375 264° West 469 540 40,000  Level Indianapolis Center
05:46PM 38.3672 -82.8033 264° West 470 541 40,000  Level Indianapolis Center
05:47PM 38.3531 -82.9681 264° West 469 540 40,000  Level Indianapolis Center
05:48PM 38.3394 -83.1322 264° West 468 539 40,000  Level Indianapolis Center
05:49PM 38.3225 -83.3253 264° West 470 541 40,000  Level Indianapolis Center
05:50PM 38.3072 -83.4933 263° West 477 549 40,000  Level Indianapolis Center
05:51PM 38.2914 -83.6606 263° West 477 549 40,000  Level Indianapolis Center
05:52PM 38.2769 -83.8272 264° West 475 547 40,000  Level Indianapolis Center
05:53PM 38.2608 -83.9939 263° West 477 549 40,000  Level Indianapolis Center
05:54PM 38.2428 -84.1922 263° West 483 556 40,000  Level Indianapolis Center
05:55PM 38.2258 -84.3633 263° West 487 560 40,000  Level Indianapolis Center
05:56PM 38.2086 -84.5353 263° West 489 563 40,000  Level Indianapolis Center
05:57PM 38.1922 -84.7053 263° West 487 560 40,000  Level Indianapolis Center
05:58PM 38.1744 -84.8786 263° West 494 568 40,000  Level Indianapolis Center
05:59PM 38.1544 -85.0767 263° West 487 560 40,000  Level Indianapolis Center
06:00PM 38.1389 -85.2453 263° West 482 555 40,000  Level Indianapolis Center
06:01PM 38.1197 -85.4142 262° West 481 554 40,000  Level Indianapolis Center
06:03PM 38.1031 -85.5833 263° West 482 555 40,000  Level Indianapolis Center
06:04PM 38.0903 -85.7531 265° West 484 557 40,000  Level Indianapolis Center
06:05PM 38.0778 -85.9250 265° West 486 559 40,000  Level Indianapolis Center
06:06PM 38.0644 -86.0958 264° West 487 560 40,000  Level Indianapolis Center
06:07PM 38.0525 -86.2672 265° West 485 558 40,000  Level Indianapolis Center
06:08PM 38.0361 -86.4725 264° West 485 558 40,000  Level Indianapolis Center
06:09PM 38.0225 -86.6439 264° West 485 558 40,000  Level Indianapolis Center
06:10PM 38.0083 -86.8172 264° West 488 562 40,000  Level Indianapolis Center
06:11PM 37.9939 -86.9936 264° West 494 568 40,000  Level Indianapolis Center
06:12PM 37.9797 -87.1714 264° West 498 573 40,000  Level Indianapolis Center
06:13PM 37.9642 -87.3494 264° West 501 577 40,000  Level Indianapolis Center
06:14PM 37.9489 -87.5281 264° West 504 580 40,000  Level Indianapolis Center
06:15PM 37.9325 -87.7064 263° West 505 581 40,000  Level Indianapolis Center
06:16PM 37.9158 -87.8850 263° West 508 585 40,000  Level Indianapolis Center
06:17PM 37.9033 -88.0289 264° West 511 588 40,000  Level Kansas City Center
06:18PM 37.8864 -88.2086 263° West 511 588 40,000  Level Kansas City Center
06:19PM 37.8681 -88.3878 263° West 512 589 40,000  Level Kansas City Center
06:20PM 37.8503 -88.5667 263° West 511 588 40,000  Level Kansas City Center
06:21PM 37.8350 -88.7417 264° West 514 592 40,000  Level Kansas City Center
06:22PM 37.8108 -88.9581 262° West 517 595 40,000 -300 Level Kansas City Center
06:23PM 37.7917 -89.1467 263° West 518 596 39,400 -780 Descending Kansas City Center
06:24PM 37.7725 -89.3303 263° West 524 603 38,400 -720 Descending Kansas City Center
06:25PM 37.7522 -89.5056 262° West 527 606 38,000 -240 Descending Kansas City Center
06:26PM 37.7203 -89.6875 258° West 531 611 38,000  Level Kansas City Center
06:27PM 37.6833 -89.8781 256° West 541 623 38,000  Level Kansas City Center
06:28PM 37.6461 -90.0592 256° West 543 625 38,000  Level Kansas City Center
06:29PM 37.6028 -90.2781 256° West 541 623 38,000  Level Kansas City Center
06:30PM 37.5672 -90.4597 256° West 538 619 38,000  Level Kansas City Center
06:31PM 37.5306 -90.6428 256° West 537 618 38,000  Level Kansas City Center
06:32PM 37.4922 -90.8228 255° West 536 617 38,000  Level Kansas City Center
06:33PM 37.4569 -91.0033 256° West 533 613 38,000  Level Kansas City Center
06:34PM 37.4200 -91.1864 256° West 534 615 38,000  Level Kansas City Center
06:35PM 37.3808 -91.3708 255° West 538 619 38,000  Level Kansas City Center
06:36PM 37.3347 -91.5906 255° West 539 620 38,000  Level Kansas City Center
06:37PM 37.2947 -91.7761 255° West 542 624 38,000  Level Kansas City Center
06:38PM 37.2547 -91.9628 255° West 548 631 38,000  Level Kansas City Center
06:39PM 37.2161 -92.1467 255° West 545 627 38,000  Level Kansas City Center
06:40PM 37.1747 -92.3294 254° West 542 624 38,000  Level Kansas City Center
06:41PM 37.1353 -92.5131 255° West 541 623 38,000  Level Kansas City Center
06:42PM 37.0939 -92.6956 254° West 541 623 38,000  Level Kansas City Center
06:44PM 37.0533 -92.8808 255° West 543 625 38,000  Level Kansas City Center
06:45PM 37.0031 -93.1006 254° West 545 627 38,000  Level Kansas City Center
06:46PM 36.9619 -93.2839 254° West 545 627 38,000  Level Kansas City Center
06:47PM 36.9200 -93.4675 254° West 547 629 38,000  Level Kansas City Center
06:48PM 36.8781 -93.6511 254° West 548 631 38,000  Level Kansas City Center
06:49PM 36.8336 -93.8469 254° West 548 631 38,000  Level Kansas City Center
06:50PM 36.7914 -94.0294 254° West 547 629 38,000  Level Kansas City Center
06:51PM 36.7478 -94.2125 253° West 550 633 38,000  Level Kansas City Center
06:52PM 36.7050 -94.3953 254° West 549 632 38,000  Level Kansas City Center
06:53PM 36.6614 -94.5781 253° West 550 633 38,000 -540 Level Kansas City Center
06:54PM 36.6083 -94.7956 253° West 548 631 36,900 -1,020 Descending Kansas City Center
06:55PM 36.5650 -94.9750 253° West 545 627 36,000 -480 Descending Kansas City Center
06:56PM 36.5244 -95.1406 253° West 540 621 36,000  Level Kansas City Center
06:57PM 36.4803 -95.3194 253° West 541 623 36,000  Level Kansas City Center
06:58PM 36.4344 -95.4983 252° West 544 626 36,000  Level Kansas City Center
06:59PM 36.3800 -95.7144 253° West 546 628 36,000 -720 Level Kansas City Center
07:00PM 36.3353 -95.8947 253° West 549 632 34,600 -1,440 Descending Kansas City Center
07:01PM 36.2900 -96.0686 252° West 542 624 33,100 -2,400 Descending Kansas City Center
07:02PM 36.2464 -96.2406 253° West 532 612 29,700 -3,300 Descending Kansas City Center
07:03PM 36.2033 -96.4064 252° West 520 598 26,300 -3,540 Descending Kansas City Center
07:04PM 36.1556 -96.5914 252° West 490 564 22,500 -3,360 Descending Kansas City Center
07:05PM 36.1192 -96.7397 253° West 458 527 19,400 -2,940 Descending Kansas City Center
07:06PM 36.0831 -96.8778 252° West 439 505 16,500 -2,760 Descending Kansas City Center
07:07PM 36.0481 -97.0122 252° West 420 483 13,800 -2,520 Descending Kansas City Center
07:08PM 36.0172 -97.1292 252° West 376 433 11,400 -2,040 Descending Kansas City Center
07:09PM 35.9681 -97.2072 232° Southwest 311 358 9,700 -1,740 Descending Kansas City Center
07:10PM 35.8947 -97.2775 218° Southwest 281 323 7,900 -1,740 Descending Kansas City Center
07:11PM 35.8378 -97.3342 219° Southwest 271 312 6,500 -1,200 Descending Fort Worth Center
07:12PM 35.7753 -97.3931 217° Southwest 267 307 5,600 -840 Descending Fort Worth Center
07:13PM 35.7253 -97.4367 215° Southwest 264 304 5,000 -300 Descending Fort Worth Center
07:14PM 35.6628 -97.5006 220° Southwest 251 289 5,000  Level Fort Worth Center
07:15PM 35.6106 -97.5539 220° Southwest 247 284 5,000 -360 Level Fort Worth Center
07:16PM 35.5708 -97.5844 212° Southwest 192 221 4,400 -900 Descending Fort Worth Center
07:17PM 35.5125 -97.5922 186° South 167 192 3,300 -900 Descending Fort Worth Center
07:18PM 35.4686 -97.5919 180° South 164 189 2,600 -780 Descending Fort Worth Center
07:19PM 35.4353 -97.5919 180° South 122 140 1,900 -720 Descending Fort Worth Center